sensor_id;sensor_type;location;lat;lon;timestamp;temperature;humidity
76291;DHT22;65100;46.884;17.410;2022-11-15T00:01:33;7.75;91.27
76291;DHT22;65100;46.884;17.410;2022-11-15T00:03:59;7.73;91.13
76291;DHT22;65100;46.884;17.410;2022-11-15T00:06:24;7.72;91.34
76291;DHT22;65100;46.884;17.410;2022-11-15T00:08:49;7.73;91.19
76291;DHT22;65100;46.884;17.410;2022-11-15T00:11:15;7.73;91.31
76291;DHT22;65100;46.884;17.410;2022-11-15T00:13:41;7.68;91.64
76291;DHT22;65100;46.884;17.410;2022-11-15T00:16:06;7.78;91.47
76291;DHT22;65100;46.884;17.410;2022-11-15T00:18:32;7.78;91.07
76291;DHT22;65100;46.884;17.410;2022-11-15T00:21:04;7.75;91.24
76291;DHT22;65100;46.884;17.410;2022-11-15T00:23:30;7.71;91.68
76291;DHT22;65100;46.884;17.410;2022-11-15T00:25:59;7.72;91.61
76291;DHT22;65100;46.884;17.410;2022-11-15T00:28:25;7.71;92.12
76291;DHT22;65100;46.884;17.410;2022-11-15T00:30:51;7.78;91.34
76291;DHT22;65100;46.884;17.410;2022-11-15T00:33:17;7.82;91.34
76291;DHT22;65100;46.884;17.410;2022-11-15T00:35:43;7.86;90.58
76291;DHT22;65100;46.884;17.410;2022-11-15T00:38:08;7.75;91.21
76291;DHT22;65100;46.884;17.410;2022-11-15T00:40:33;7.81;91.26
76291;DHT22;65100;46.884;17.410;2022-11-15T00:42:59;7.79;90.68
76291;DHT22;65100;46.884;17.410;2022-11-15T00:45:25;7.72;90.95
76291;DHT22;65100;46.884;17.410;2022-11-15T00:47:51;7.79;90.82
76291;DHT22;65100;46.884;17.410;2022-11-15T00:50:17;7.75;90.96
76291;DHT22;65100;46.884;17.410;2022-11-15T00:52:43;7.72;91.10
76291;DHT22;65100;46.884;17.410;2022-11-15T00:55:18;7.63;91.27
76291;DHT22;65100;46.884;17.410;2022-11-15T00:57:44;7.59;91.57
76291;DHT22;65100;46.884;17.410;2022-11-15T01:00:11;7.58;91.78
76291;DHT22;65100;46.884;17.410;2022-11-15T01:02:36;7.49;92.08
76291;DHT22;65100;46.884;17.410;2022-11-15T01:05:02;7.52;92.08
76291;DHT22;65100;46.884;17.410;2022-11-15T01:07:27;7.58;91.69
76291;DHT22;65100;46.884;17.410;2022-11-15T01:09:53;7.58;91.85
76291;DHT22;65100;46.884;17.410;2022-11-15T01:12:18;7.59;91.64
76291;DHT22;65100;46.884;17.410;2022-11-15T01:14:44;7.61;91.59
76291;DHT22;65100;46.884;17.410;2022-11-15T01:17:09;7.63;91.75
76291;DHT22;65100;46.884;17.410;2022-11-15T01:19:35;7.65;91.23
76291;DHT22;65100;46.884;17.410;2022-11-15T01:22:01;7.58;91.46
76291;DHT22;65100;46.884;17.410;2022-11-15T01:24:26;7.65;91.23
76291;DHT22;65100;46.884;17.410;2022-11-15T01:26:51;7.68;90.85
76291;DHT22;65100;46.884;17.410;2022-11-15T01:29:17;7.58;91.62
76291;DHT22;65100;46.884;17.410;2022-11-15T01:31:42;7.62;91.10
76291;DHT22;65100;46.884;17.410;2022-11-15T01:34:08;7.58;91.16
76291;DHT22;65100;46.884;17.410;2022-11-15T01:36:33;7.63;90.91
76291;DHT22;65100;46.884;17.410;2022-11-15T01:38:59;7.63;90.68
76291;DHT22;65100;46.884;17.410;2022-11-15T01:41:30;7.61;90.82
76291;DHT22;65100;46.884;17.410;2022-11-15T01:46:56;7.42;91.86
76291;DHT22;65100;46.884;17.410;2022-11-15T01:49:23;7.39;91.72
76291;DHT22;65100;46.884;17.410;2022-11-15T01:51:49;7.42;91.63
76291;DHT22;65100;46.884;17.410;2022-11-15T01:54:18;7.45;91.51
76291;DHT22;65100;46.884;17.410;2022-11-15T01:56:58;7.41;91.26
76291;DHT22;65100;46.884;17.410;2022-11-15T01:59:25;7.39;91.00
76291;DHT22;65100;46.884;17.410;2022-11-15T02:01:51;7.39;91.20
76291;DHT22;65100;46.884;17.410;2022-11-15T02:04:29;7.32;91.39
76291;DHT22;65100;46.884;17.410;2022-11-15T02:06:56;7.25;91.69
76291;DHT22;65100;46.884;17.410;2022-11-15T02:09:22;7.21;91.79
76291;DHT22;65100;46.884;17.410;2022-11-15T02:11:48;7.22;91.78
76291;DHT22;65100;46.884;17.410;2022-11-15T02:14:16;7.24;91.46
76291;DHT22;65100;46.884;17.410;2022-11-15T02:17:15;7.25;91.65
76291;DHT22;65100;46.884;17.410;2022-11-15T02:20:27;7.29;91.73
76291;DHT22;65100;46.884;17.410;2022-11-15T02:28:51;7.17;92.32
76291;DHT22;65100;46.884;17.410;2022-11-15T02:31:47;7.19;92.43
76291;DHT22;65100;46.884;17.410;2022-11-15T02:34:39;7.17;92.34
76291;DHT22;65100;46.884;17.410;2022-11-15T02:37:21;7.17;92.64
76291;DHT22;65100;46.884;17.410;2022-11-15T02:40:14;7.15;92.45
76291;DHT22;65100;46.884;17.410;2022-11-15T02:42:45;7.24;91.96
76291;DHT22;65100;46.884;17.410;2022-11-15T02:45:35;7.22;92.18
76291;DHT22;65100;46.884;17.410;2022-11-15T02:48:02;7.15;92.26
76291;DHT22;65100;46.884;17.410;2022-11-15T02:50:30;7.18;92.11
76291;DHT22;65100;46.884;17.410;2022-11-15T02:52:56;7.04;92.76
76291;DHT22;65100;46.884;17.410;2022-11-15T02:55:31;6.98;93.07
76291;DHT22;65100;46.884;17.410;2022-11-15T03:12:12;7.00;93.07
76291;DHT22;65100;46.884;17.410;2022-11-15T03:14:54;7.07;93.20
76291;DHT22;65100;46.884;17.410;2022-11-15T03:17:32;7.04;92.98
76291;DHT22;65100;46.884;17.410;2022-11-15T03:20:01;7.14;92.78
76291;DHT22;65100;46.884;17.410;2022-11-15T03:22:33;7.12;92.72
76291;DHT22;65100;46.884;17.410;2022-11-15T03:25:03;7.08;92.73
76291;DHT22;65100;46.884;17.410;2022-11-15T03:27:42;7.21;92.25
76291;DHT22;65100;46.884;17.410;2022-11-15T03:30:10;7.27;91.83
76291;DHT22;65100;46.884;17.410;2022-11-15T03:32:47;7.14;91.99
76291;DHT22;65100;46.884;17.410;2022-11-15T03:35:25;7.22;92.01
76291;DHT22;65100;46.884;17.410;2022-11-15T03:38:19;7.15;92.17
76291;DHT22;65100;46.884;17.410;2022-11-15T03:40:51;7.08;92.71
76291;DHT22;65100;46.884;17.410;2022-11-15T03:46:33;7.39;91.33
76291;DHT22;65100;46.884;17.410;2022-11-15T03:49:12;7.29;91.80
76291;DHT22;65100;46.884;17.410;2022-11-15T03:51:39;7.15;92.01
76291;DHT22;65100;46.884;17.410;2022-11-15T03:54:05;7.09;92.35
76291;DHT22;65100;46.884;17.410;2022-11-15T03:56:31;7.27;92.12
76291;DHT22;65100;46.884;17.410;2022-11-15T03:58:56;7.38;91.92
76291;DHT22;65100;46.884;17.410;2022-11-15T04:01:22;7.36;91.60
76291;DHT22;65100;46.884;17.410;2022-11-15T04:03:47;7.35;92.24
76291;DHT22;65100;46.884;17.410;2022-11-15T04:06:13;7.42;91.16
76291;DHT22;65100;46.884;17.410;2022-11-15T04:08:38;7.42;91.05
76291;DHT22;65100;46.884;17.410;2022-11-15T04:11:04;7.39;91.14
76291;DHT22;65100;46.884;17.410;2022-11-15T04:13:29;7.36;91.32
76291;DHT22;65100;46.884;17.410;2022-11-15T04:15:55;7.39;91.49
76291;DHT22;65100;46.884;17.410;2022-11-15T04:18:20;7.38;91.27
76291;DHT22;65100;46.884;17.410;2022-11-15T04:20:46;7.41;91.66
76291;DHT22;65100;46.884;17.410;2022-11-15T04:23:30;7.48;90.84
76291;DHT22;65100;46.884;17.410;2022-11-15T04:26:19;7.44;90.99
76291;DHT22;65100;46.884;17.410;2022-11-15T04:28:46;7.49;90.73
76291;DHT22;65100;46.884;17.410;2022-11-15T04:31:30;7.47;90.84
76291;DHT22;65100;46.884;17.410;2022-11-15T04:33:55;7.51;90.76
76291;DHT22;65100;46.884;17.410;2022-11-15T04:36:21;7.38;91.67
76291;DHT22;65100;46.884;17.410;2022-11-15T04:39:05;7.38;91.20
76291;DHT22;65100;46.884;17.410;2022-11-15T04:41:31;7.38;91.44
76291;DHT22;65100;46.884;17.410;2022-11-15T04:43:56;7.42;91.24
76291;DHT22;65100;46.884;17.410;2022-11-15T04:46:22;7.48;90.77
76291;DHT22;65100;46.884;17.410;2022-11-15T04:48:49;7.45;91.25
76291;DHT22;65100;46.884;17.410;2022-11-15T04:51:14;7.44;91.37
76291;DHT22;65100;46.884;17.410;2022-11-15T04:53:40;7.44;91.34
76291;DHT22;65100;46.884;17.410;2022-11-15T04:56:06;7.49;91.18
76291;DHT22;65100;46.884;17.410;2022-11-15T04:58:31;7.65;90.29
76291;DHT22;65100;46.884;17.410;2022-11-15T05:00:57;7.63;90.20
76291;DHT22;65100;46.884;17.410;2022-11-15T05:03:22;7.52;90.74
76291;DHT22;65100;46.884;17.410;2022-11-15T05:06:06;7.56;90.61
76291;DHT22;65100;46.884;17.410;2022-11-15T05:08:32;7.52;90.56
76291;DHT22;65100;46.884;17.410;2022-11-15T05:10:57;7.45;90.92
76291;DHT22;65100;46.884;17.410;2022-11-15T05:13:23;7.34;91.63
76291;DHT22;65100;46.884;17.410;2022-11-15T05:15:48;7.48;91.14
76291;DHT22;65100;46.884;17.410;2022-11-15T05:18:14;7.35;91.66
76291;DHT22;65100;46.884;17.410;2022-11-15T05:20:39;7.51;90.86
76291;DHT22;65100;46.884;17.410;2022-11-15T05:23:05;7.38;91.35
76291;DHT22;65100;46.884;17.410;2022-11-15T05:25:30;7.47;91.28
76291;DHT22;65100;46.884;17.410;2022-11-15T05:27:56;7.42;91.16
76291;DHT22;65100;46.884;17.410;2022-11-15T05:30:22;7.58;90.43
76291;DHT22;65100;46.884;17.410;2022-11-15T05:32:47;7.59;90.44
76291;DHT22;65100;46.884;17.410;2022-11-15T05:35:19;7.58;90.39
76291;DHT22;65100;46.884;17.410;2022-11-15T05:37:45;7.54;90.31
76291;DHT22;65100;46.884;17.410;2022-11-15T05:40:11;7.51;90.29
76291;DHT22;65100;46.884;17.410;2022-11-15T05:42:37;7.52;90.33
76291;DHT22;65100;46.884;17.410;2022-11-15T05:45:05;7.42;90.84
76291;DHT22;65100;46.884;17.410;2022-11-15T05:47:31;7.45;91.03
76291;DHT22;65100;46.884;17.410;2022-11-15T05:49:58;7.49;90.47
76291;DHT22;65100;46.884;17.410;2022-11-15T05:52:27;7.51;90.66
76291;DHT22;65100;46.884;17.410;2022-11-15T05:54:54;7.49;90.73
76291;DHT22;65100;46.884;17.410;2022-11-15T05:57:20;7.48;90.80
76291;DHT22;65100;46.884;17.410;2022-11-15T05:59:46;7.42;90.83
76291;DHT22;65100;46.884;17.410;2022-11-15T06:02:12;7.38;90.98
76291;DHT22;65100;46.884;17.410;2022-11-15T06:04:37;7.35;91.42
76291;DHT22;65100;46.884;17.410;2022-11-15T06:07:03;7.25;91.46
76291;DHT22;65100;46.884;17.410;2022-11-15T06:09:28;7.35;91.18
76291;DHT22;65100;46.884;17.410;2022-11-15T06:11:54;7.34;91.22
76291;DHT22;65100;46.884;17.410;2022-11-15T06:14:19;7.29;91.76
76291;DHT22;65100;46.884;17.410;2022-11-15T06:16:44;7.22;91.65
76291;DHT22;65100;46.884;17.410;2022-11-15T06:19:10;7.31;91.66
76291;DHT22;65100;46.884;17.410;2022-11-15T06:21:35;7.44;92.82
76291;DHT22;65100;46.884;17.410;2022-11-15T06:24:01;7.61;92.84
76291;DHT22;65100;46.884;17.410;2022-11-15T06:26:27;7.51;91.07
76291;DHT22;65100;46.884;17.410;2022-11-15T06:28:52;7.56;93.56
76291;DHT22;65100;46.884;17.410;2022-11-15T06:31:18;7.54;94.08
76291;DHT22;65100;46.884;17.410;2022-11-15T06:33:43;7.56;91.96
76291;DHT22;65100;46.884;17.410;2022-11-15T06:36:11;7.65;92.58
76291;DHT22;65100;46.884;17.410;2022-11-15T06:38:39;7.65;91.84
76291;DHT22;65100;46.884;17.410;2022-11-15T06:41:06;7.62;90.83
76291;DHT22;65100;46.884;17.410;2022-11-15T06:43:32;7.58;91.29
76291;DHT22;65100;46.884;17.410;2022-11-15T06:45:59;7.47;90.77
76291;DHT22;65100;46.884;17.410;2022-11-15T06:48:25;7.35;91.32
76291;DHT22;65100;46.884;17.410;2022-11-15T06:50:52;7.24;91.66
76291;DHT22;65100;46.884;17.410;2022-11-15T06:53:18;7.38;91.80
76291;DHT22;65100;46.884;17.410;2022-11-15T06:55:44;7.54;94.17
76291;DHT22;65100;46.884;17.410;2022-11-15T06:58:09;7.44;92.36
76291;DHT22;65100;46.884;17.410;2022-11-15T07:00:35;7.52;91.18
76291;DHT22;65100;46.884;17.410;2022-11-15T07:03:01;7.49;91.24
76291;DHT22;65100;46.884;17.410;2022-11-15T07:05:27;7.44;91.73
76291;DHT22;65100;46.884;17.410;2022-11-15T07:07:54;7.41;91.36
76291;DHT22;65100;46.884;17.410;2022-11-15T07:10:21;7.44;92.09
76291;DHT22;65100;46.884;17.410;2022-11-15T07:12:49;7.54;91.17
76291;DHT22;65100;46.884;17.410;2022-11-15T07:15:15;7.58;90.82
76291;DHT22;65100;46.884;17.410;2022-11-15T07:17:41;7.59;90.77
76291;DHT22;65100;46.884;17.410;2022-11-15T07:20:07;7.55;90.68
76291;DHT22;65100;46.884;17.410;2022-11-15T07:22:32;7.42;91.56
76291;DHT22;65100;46.884;17.410;2022-11-15T07:24:58;7.47;91.25
76291;DHT22;65100;46.884;17.410;2022-11-15T07:27:23;7.63;90.82
76291;DHT22;65100;46.884;17.410;2022-11-15T07:29:49;7.69;90.56
76291;DHT22;65100;46.884;17.410;2022-11-15T07:32:14;7.76;90.86
76291;DHT22;65100;46.884;17.410;2022-11-15T07:34:40;7.78;89.89
76291;DHT22;65100;46.884;17.410;2022-11-15T07:37:05;7.68;90.77
76291;DHT22;65100;46.884;17.410;2022-11-15T07:39:31;7.75;90.71
76291;DHT22;65100;46.884;17.410;2022-11-15T07:41:57;7.86;90.62
76291;DHT22;65100;46.884;17.410;2022-11-15T07:44:42;7.78;91.22
76291;DHT22;65100;46.884;17.410;2022-11-15T07:47:08;7.69;90.86
76291;DHT22;65100;46.884;17.410;2022-11-15T07:49:34;7.79;90.79
76291;DHT22;65100;46.884;17.410;2022-11-15T07:51:59;7.79;90.57
76291;DHT22;65100;46.884;17.410;2022-11-15T07:54:25;7.75;90.73
76291;DHT22;65100;46.884;17.410;2022-11-15T07:56:51;7.68;91.35
76291;DHT22;65100;46.884;17.410;2022-11-15T07:59:16;7.68;91.20
76291;DHT22;65100;46.884;17.410;2022-11-15T08:01:42;7.71;91.60
76291;DHT22;65100;46.884;17.410;2022-11-15T08:04:09;7.82;91.62
76291;DHT22;65100;46.884;17.410;2022-11-15T08:06:35;7.79;90.51
76291;DHT22;65100;46.884;17.410;2022-11-15T08:09:01;7.92;90.62
76291;DHT22;65100;46.884;17.410;2022-11-15T08:11:47;7.83;91.19
76291;DHT22;65100;46.884;17.410;2022-11-15T08:14:34;7.79;91.68
76291;DHT22;65100;46.884;17.410;2022-11-15T08:17:00;8.06;91.34
76291;DHT22;65100;46.884;17.410;2022-11-15T08:19:25;8.13;89.88
76291;DHT22;65100;46.884;17.410;2022-11-15T08:21:51;8.06;91.05
76291;DHT22;65100;46.884;17.410;2022-11-15T08:24:17;7.93;90.89
76291;DHT22;65100;46.884;17.410;2022-11-15T08:26:43;8.20;90.57
76291;DHT22;65100;46.884;17.410;2022-11-15T08:29:08;8.30;89.27
76291;DHT22;65100;46.884;17.410;2022-11-15T08:31:37;8.26;90.09
76291;DHT22;65100;46.884;17.410;2022-11-15T08:34:05;8.34;89.94
76291;DHT22;65100;46.884;17.410;2022-11-15T08:36:30;8.43;89.18
76291;DHT22;65100;46.884;17.410;2022-11-15T08:38:56;8.36;89.06
76291;DHT22;65100;46.884;17.410;2022-11-15T08:41:28;8.44;88.73
76291;DHT22;65100;46.884;17.410;2022-11-15T08:43:55;8.34;89.20
76291;DHT22;65100;46.884;17.410;2022-11-15T08:46:20;8.25;89.38
76291;DHT22;65100;46.884;17.410;2022-11-15T08:48:46;8.19;90.06
76291;DHT22;65100;46.884;17.410;2022-11-15T08:51:11;8.29;90.47
76291;DHT22;65100;46.884;17.410;2022-11-15T08:53:37;8.38;89.30
76291;DHT22;65100;46.884;17.410;2022-11-15T08:56:07;8.44;88.50
76291;DHT22;65100;46.884;17.410;2022-11-15T08:58:33;8.43;90.07
76291;DHT22;65100;46.884;17.410;2022-11-15T09:01:02;8.36;89.68
76291;DHT22;65100;46.884;17.410;2022-11-15T09:03:28;8.33;90.94
76291;DHT22;65100;46.884;17.410;2022-11-15T09:05:55;8.37;90.05
76291;DHT22;65100;46.884;17.410;2022-11-15T09:08:21;8.23;90.10
76291;DHT22;65100;46.884;17.410;2022-11-15T09:10:47;8.32;90.15
76291;DHT22;65100;46.884;17.410;2022-11-15T09:13:12;8.32;90.62
76291;DHT22;65100;46.884;17.410;2022-11-15T09:15:38;8.50;90.87
76291;DHT22;65100;46.884;17.410;2022-11-15T09:18:04;8.57;89.90
76291;DHT22;65100;46.884;17.410;2022-11-15T09:20:30;8.48;90.20
76291;DHT22;65100;46.884;17.410;2022-11-15T09:23:02;8.70;90.39
76291;DHT22;65100;46.884;17.410;2022-11-15T09:25:28;8.70;90.51
76291;DHT22;65100;46.884;17.410;2022-11-15T09:27:54;8.85;90.20
76291;DHT22;65100;46.884;17.410;2022-11-15T09:30:20;8.91;89.43
76291;DHT22;65100;46.884;17.410;2022-11-15T09:32:45;8.98;88.25
76291;DHT22;65100;46.884;17.410;2022-11-15T09:35:11;9.08;88.52
76291;DHT22;65100;46.884;17.410;2022-11-15T09:37:36;9.14;89.84
76291;DHT22;65100;46.884;17.410;2022-11-15T09:40:03;9.16;88.99
76291;DHT22;65100;46.884;17.410;2022-11-15T09:43:28;9.18;89.47
76291;DHT22;65100;46.884;17.410;2022-11-15T09:51:39;9.14;89.74
76291;DHT22;65100;46.884;17.410;2022-11-15T09:54:33;9.28;88.06
76291;DHT22;65100;46.884;17.410;2022-11-15T09:57:29;9.08;88.21
76291;DHT22;65100;46.884;17.410;2022-11-15T10:00:08;9.12;88.16
76291;DHT22;65100;46.884;17.410;2022-11-15T10:03:09;9.19;88.26
76291;DHT22;65100;46.884;17.410;2022-11-15T10:05:44;9.24;88.15
76291;DHT22;65100;46.884;17.410;2022-11-15T10:11:21;8.88;89.99
76291;DHT22;65100;46.884;17.410;2022-11-15T10:13:49;8.91;89.44
76291;DHT22;65100;46.884;17.410;2022-11-15T10:19:42;9.28;91.40
76291;DHT22;65100;46.884;17.410;2022-11-15T10:22:29;9.19;89.46
76291;DHT22;65100;46.884;17.410;2022-11-15T10:30:47;9.21;89.82
76291;DHT22;65100;46.884;17.410;2022-11-15T10:33:34;9.32;88.40
76291;DHT22;65100;46.884;17.410;2022-11-15T10:44:18;9.19;88.90
76291;DHT22;65100;46.884;17.410;2022-11-15T10:49:28;9.14;87.85
76291;DHT22;65100;46.884;17.410;2022-11-15T10:56:54;9.31;87.04
76291;DHT22;65100;46.884;17.410;2022-11-15T10:59:28;9.19;88.88
76291;DHT22;65100;46.884;17.410;2022-11-15T11:01:54;9.22;88.61
76291;DHT22;65100;46.884;17.410;2022-11-15T11:04:20;9.28;86.87
76291;DHT22;65100;46.884;17.410;2022-11-15T11:09:30;9.11;87.71
76291;DHT22;65100;46.884;17.410;2022-11-15T11:11:57;9.07;88.24
76291;DHT22;65100;46.884;17.410;2022-11-15T11:19:53;9.11;91.09
76291;DHT22;65100;46.884;17.410;2022-11-15T11:31:02;9.07;87.23
76291;DHT22;65100;46.884;17.410;2022-11-15T11:33:33;8.97;87.73
76291;DHT22;65100;46.884;17.410;2022-11-15T11:36:21;8.88;87.59
76291;DHT22;65100;46.884;17.410;2022-11-15T11:39:30;8.80;88.73
76291;DHT22;65100;46.884;17.410;2022-11-15T11:45:19;8.87;88.15
76291;DHT22;65100;46.884;17.410;2022-11-15T11:50:38;8.87;89.03
76291;DHT22;65100;46.884;17.410;2022-11-15T11:55:54;8.91;89.37
76291;DHT22;65100;46.884;17.410;2022-11-15T11:58:41;9.00;88.22
76291;DHT22;65100;46.884;17.410;2022-11-15T12:01:15;8.92;89.13
76291;DHT22;65100;46.884;17.410;2022-11-15T12:03:48;8.89;89.28
76291;DHT22;65100;46.884;17.410;2022-11-15T12:06:55;8.95;88.45
76291;DHT22;65100;46.884;17.410;2022-11-15T12:12:23;8.95;89.27
76291;DHT22;65100;46.884;17.410;2022-11-15T12:14:57;8.85;89.13
76291;DHT22;65100;46.884;17.410;2022-11-15T12:17:27;8.88;90.11
76291;DHT22;65100;46.884;17.410;2022-11-15T12:19:58;8.94;89.69
76291;DHT22;65100;46.884;17.410;2022-11-15T12:22:39;8.87;89.50
76291;DHT22;65100;46.884;17.410;2022-11-15T12:27:57;9.10;90.36
76291;DHT22;65100;46.884;17.410;2022-11-15T12:30:38;9.15;89.35
76291;DHT22;65100;46.884;17.410;2022-11-15T12:35:59;9.28;88.79
76291;DHT22;65100;46.884;17.410;2022-11-15T12:41:17;9.29;90.32
76291;DHT22;65100;46.884;17.410;2022-11-15T12:43:44;9.26;88.64
76291;DHT22;65100;46.884;17.410;2022-11-15T13:02:45;9.43;88.06
76291;DHT22;65100;46.884;17.410;2022-11-15T13:31:17;9.07;89.65
76291;DHT22;65100;46.884;17.410;2022-11-15T13:33:44;9.14;89.82
76291;DHT22;65100;46.884;17.410;2022-11-15T13:36:18;9.15;89.41
76291;DHT22;65100;46.884;17.410;2022-11-15T13:38:54;9.00;90.10
76291;DHT22;65100;46.884;17.410;2022-11-15T13:41:25;9.10;89.57
76291;DHT22;65100;46.884;17.410;2022-11-15T13:43:52;9.16;89.20
76291;DHT22;65100;46.884;17.410;2022-11-15T13:46:20;9.10;89.64
76291;DHT22;65100;46.884;17.410;2022-11-15T13:48:52;9.11;90.06
76291;DHT22;65100;46.884;17.410;2022-11-15T13:51:19;9.07;90.46
76291;DHT22;65100;46.884;17.410;2022-11-15T13:53:50;9.14;89.85
76291;DHT22;65100;46.884;17.410;2022-11-15T13:56:18;9.18;89.82
76291;DHT22;65100;46.884;17.410;2022-11-15T13:58:45;9.15;90.15
76291;DHT22;65100;46.884;17.410;2022-11-15T14:01:17;9.18;90.34
76291;DHT22;65100;46.884;17.410;2022-11-15T14:03:54;9.15;90.32
76291;DHT22;65100;46.884;17.410;2022-11-15T14:06:22;9.21;90.46
76291;DHT22;65100;46.884;17.410;2022-11-15T14:11:26;9.35;90.67
76291;DHT22;65100;46.884;17.410;2022-11-15T14:16:48;9.52;90.32
76291;DHT22;65100;46.884;17.410;2022-11-15T14:19:35;9.56;89.30
76291;DHT22;65100;46.884;17.410;2022-11-15T14:22:22;9.65;89.38
76291;DHT22;65100;46.884;17.410;2022-11-15T14:28:06;9.46;90.26
76291;DHT22;65100;46.884;17.410;2022-11-15T14:30:29;9.46;90.20
76291;DHT22;65100;46.884;17.410;2022-11-15T14:32:55;9.55;90.08
76291;DHT22;65100;46.884;17.410;2022-11-15T14:35:23;9.58;90.08
76291;DHT22;65100;46.884;17.410;2022-11-15T14:37:49;9.56;90.16
76291;DHT22;65100;46.884;17.410;2022-11-15T14:40:20;9.69;89.77
76291;DHT22;65100;46.884;17.410;2022-11-15T14:42:47;9.68;89.48
76291;DHT22;65100;46.884;17.410;2022-11-15T14:45:22;9.63;89.75
76291;DHT22;65100;46.884;17.410;2022-11-15T14:47:48;9.80;89.84
76291;DHT22;65100;46.884;17.410;2022-11-15T14:50:15;9.75;88.89
76291;DHT22;65100;46.884;17.410;2022-11-15T14:52:42;9.70;90.64
76291;DHT22;65100;46.884;17.410;2022-11-15T14:57:36;9.69;88.85
76291;DHT22;65100;46.884;17.410;2022-11-15T15:00:02;9.80;88.11
76291;DHT22;65100;46.884;17.410;2022-11-15T15:02:28;9.82;86.99
76291;DHT22;65100;46.884;17.410;2022-11-15T15:04:53;9.75;87.02
76291;DHT22;65100;46.884;17.410;2022-11-15T15:07:19;9.73;86.98
76291;DHT22;65100;46.884;17.410;2022-11-15T15:09:46;9.73;87.07
76291;DHT22;65100;46.884;17.410;2022-11-15T15:12:16;9.68;87.33
76291;DHT22;65100;46.884;17.410;2022-11-15T15:14:43;9.80;86.92
76291;DHT22;65100;46.884;17.410;2022-11-15T15:17:08;9.85;86.98
76291;DHT22;65100;46.884;17.410;2022-11-15T15:19:34;9.89;86.97
76291;DHT22;65100;46.884;17.410;2022-11-15T15:22:00;9.89;86.88
76291;DHT22;65100;46.884;17.410;2022-11-15T15:24:25;9.93;86.57
76291;DHT22;65100;46.884;17.410;2022-11-15T15:26:51;9.99;86.90
76291;DHT22;65100;46.884;17.410;2022-11-15T15:29:16;9.86;87.05
76291;DHT22;65100;46.884;17.410;2022-11-15T15:31:41;9.68;87.85
76291;DHT22;65100;46.884;17.410;2022-11-15T15:34:07;9.75;87.83
76291;DHT22;65100;46.884;17.410;2022-11-15T15:36:32;9.72;87.89
76291;DHT22;65100;46.884;17.410;2022-11-15T15:38:58;9.66;88.29
76291;DHT22;65100;46.884;17.410;2022-11-15T15:41:23;9.79;87.77
76291;DHT22;65100;46.884;17.410;2022-11-15T15:43:49;9.69;88.41
76291;DHT22;65100;46.884;17.410;2022-11-15T15:46:16;9.73;88.58
76291;DHT22;65100;46.884;17.410;2022-11-15T15:48:42;9.75;88.21
76291;DHT22;65100;46.884;17.410;2022-11-15T15:51:07;9.63;88.76
76291;DHT22;65100;46.884;17.410;2022-11-15T15:53:33;9.59;88.80
76291;DHT22;65100;46.884;17.410;2022-11-15T15:55:59;9.49;89.45
76291;DHT22;65100;46.884;17.410;2022-11-15T15:58:25;9.58;88.95
76291;DHT22;65100;46.884;17.410;2022-11-15T16:00:50;9.59;89.12
76291;DHT22;65100;46.884;17.410;2022-11-15T16:03:16;9.58;89.19
76291;DHT22;65100;46.884;17.410;2022-11-15T16:05:41;9.60;89.27
76291;DHT22;65100;46.884;17.410;2022-11-15T16:08:25;9.63;88.80
76291;DHT22;65100;46.884;17.410;2022-11-15T16:10:54;9.65;88.91
76291;DHT22;65100;46.884;17.410;2022-11-15T16:13:20;9.59;88.87
76291;DHT22;65100;46.884;17.410;2022-11-15T16:15:47;9.62;89.64
76291;DHT22;65100;46.884;17.410;2022-11-15T16:18:16;9.55;89.33
76291;DHT22;65100;46.884;17.410;2022-11-15T16:20:44;9.49;89.19
76291;DHT22;65100;46.884;17.410;2022-11-15T16:23:15;9.45;89.17
76291;DHT22;65100;46.884;17.410;2022-11-15T16:25:51;9.45;89.30
76291;DHT22;65100;46.884;17.410;2022-11-15T16:28:26;9.48;89.04
76291;DHT22;65100;46.884;17.410;2022-11-15T16:31:08;9.50;88.63
76291;DHT22;65100;46.884;17.410;2022-11-15T16:33:34;9.46;89.16
76291;DHT22;65100;46.884;17.410;2022-11-15T16:35:59;9.50;89.07
76291;DHT22;65100;46.884;17.410;2022-11-15T16:38:25;9.48;88.74
76291;DHT22;65100;46.884;17.410;2022-11-15T16:40:50;9.38;89.09
76291;DHT22;65100;46.884;17.410;2022-11-15T16:43:16;9.45;89.09
76291;DHT22;65100;46.884;17.410;2022-11-15T16:45:41;9.45;88.51
76291;DHT22;65100;46.884;17.410;2022-11-15T16:48:24;9.40;88.79
76291;DHT22;65100;46.884;17.410;2022-11-15T16:50:51;9.43;88.78
76291;DHT22;65100;46.884;17.410;2022-11-15T16:53:18;9.39;88.81
76291;DHT22;65100;46.884;17.410;2022-11-15T16:55:44;9.39;88.98
76291;DHT22;65100;46.884;17.410;2022-11-15T16:58:09;9.36;88.82
76291;DHT22;65100;46.884;17.410;2022-11-15T17:00:35;9.39;88.73
76291;DHT22;65100;46.884;17.410;2022-11-15T17:03:00;9.42;88.83
76291;DHT22;65100;46.884;17.410;2022-11-15T17:05:28;9.43;88.83
76291;DHT22;65100;46.884;17.410;2022-11-15T17:07:54;9.43;88.53
76291;DHT22;65100;46.884;17.410;2022-11-15T17:10:21;9.36;88.69
76291;DHT22;65100;46.884;17.410;2022-11-15T17:12:47;9.32;88.71
76291;DHT22;65100;46.884;17.410;2022-11-15T17:15:13;9.55;89.50
76291;DHT22;65100;46.884;17.410;2022-11-15T17:17:39;9.53;88.87
76291;DHT22;65100;46.884;17.410;2022-11-15T17:20:06;9.59;89.64
76291;DHT22;65100;46.884;17.410;2022-11-15T17:22:37;9.65;89.68
76291;DHT22;65100;46.884;17.410;2022-11-15T17:25:03;9.56;89.07
76291;DHT22;65100;46.884;17.410;2022-11-15T17:27:29;9.60;88.59
76291;DHT22;65100;46.884;17.410;2022-11-15T17:29:54;9.56;88.14
76291;DHT22;65100;46.884;17.410;2022-11-15T17:32:20;9.59;89.45
76291;DHT22;65100;46.884;17.410;2022-11-15T17:34:45;9.69;88.29
76291;DHT22;65100;46.884;17.410;2022-11-15T17:37:11;9.65;88.65
76291;DHT22;65100;46.884;17.410;2022-11-15T17:39:36;9.63;88.02
76291;DHT22;65100;46.884;17.410;2022-11-15T17:42:02;9.59;87.81
76291;DHT22;65100;46.884;17.410;2022-11-15T17:44:27;9.69;89.29
76291;DHT22;65100;46.884;17.410;2022-11-15T17:46:53;9.53;88.51
76291;DHT22;65100;46.884;17.410;2022-11-15T17:49:18;9.56;89.01
76291;DHT22;65100;46.884;17.410;2022-11-15T17:51:43;9.53;89.24
76291;DHT22;65100;46.884;17.410;2022-11-15T17:54:10;9.69;89.17
76291;DHT22;65100;46.884;17.410;2022-11-15T17:56:38;9.58;88.24
76291;DHT22;65100;46.884;17.410;2022-11-15T17:59:05;9.62;88.59
76291;DHT22;65100;46.884;17.410;2022-11-15T18:01:36;9.56;89.27
76291;DHT22;65100;46.884;17.410;2022-11-15T18:04:04;9.58;89.01
76291;DHT22;65100;46.884;17.410;2022-11-15T18:06:33;9.60;88.80
76291;DHT22;65100;46.884;17.410;2022-11-15T18:08:59;9.65;88.93
76291;DHT22;65100;46.884;17.410;2022-11-15T18:11:30;9.65;88.84
76291;DHT22;65100;46.884;17.410;2022-11-15T18:14:01;9.56;88.38